Time;durP1;ratioP1;P1;durP2;ratioP2;P2;SDS_P1;SDS_P2;PMS_P1;PMS_P2;Temp;Humidity;BMP_temperature;BMP_pressure;BME280_temperature;BME280_humidity;BME280_pressure;Samples;Min_cycle;Max_cycle;Signal;HPM_P1;HPM_P2
2021/10/28 00:13:10;;;;;;;;;;;11.20;99.90;;;;;;8338340;28;20383;-73
2021/10/28 00:17:15;;;;;;;;;;;11.20;99.90;;;;;;8346583;28;19928;-73
2021/10/28 00:21:17;;;;;;;;;;;11.20;99.90;;;;;;8329274;28;20380;-73
2021/10/28 00:25:46;;;;;;;;;;;11.20;99.90;;;;;;8355850;28;19921;-73
2021/10/28 00:29:48;;;;;;;;;;;11.20;99.90;;;;;;8348338;28;19921;-73
2021/10/28 00:33:50;;;;;;;;;;;11.10;99.90;;;;;;8346803;28;20434;-73
2021/10/28 00:37:52;;;;;;;;;;;11.10;99.90;;;;;;8352473;28;19932;-73
2021/10/28 00:41:54;;;;;;;;;;;11.10;99.90;;;;;;8343260;28;19929;-73
2021/10/28 00:45:56;;;;;;;;;;;11.10;99.90;;;;;;8361339;28;19974;-73
2021/10/28 00:49:57;;;;;;;;;;;11.10;99.90;;;;;;8338054;28;20097;-73
2021/10/28 00:54:00;;;;;;;;;;;11.00;99.90;;;;;;8337287;28;19925;-73
2021/10/28 00:58:02;;;;;;;;;;;11.00;99.90;;;;;;8346597;28;19928;-73
2021/10/28 01:02:04;;;;;;;;;;;11.00;99.90;;;;;;8331717;28;19920;-73
2021/10/28 01:06:07;;;;;;;;;;;11.00;99.90;;;;;;8338758;28;19933;-73
2021/10/28 01:10:09;;;;;;;;;;;10.90;99.90;;;;;;8326129;28;20982;-73
2021/10/28 01:14:10;;;;;;;;;;;10.90;99.90;;;;;;8348537;28;19921;-73
2021/10/28 01:18:13;;;;;;;;;;;10.90;99.90;;;;;;8323499;28;19921;-73
2021/10/28 01:22:15;;;;;;;;;;;10.90;99.90;;;;;;8320020;28;19976;-73
2021/10/28 01:26:17;;;;;;;;;;;10.90;99.90;;;;;;8374943;28;19927;-73
2021/10/28 01:30:19;;;;;;;;;;;10.90;99.90;;;;;;8341868;28;19921;-73
2021/10/28 01:34:20;;;;;;;;;;;10.80;99.90;;;;;;8351998;28;19944;-73
2021/10/28 01:38:24;;;;;;;;;;;10.80;99.90;;;;;;8332841;28;19920;-73
2021/10/28 01:42:27;;;;;;;;;;;10.80;99.90;;;;;;8336444;28;19990;-73
2021/10/28 01:46:29;;;;;;;;;;;10.80;99.90;;;;;;8333473;28;19928;-73
2021/10/28 01:50:31;;;;;;;;;;;10.80;99.90;;;;;;8348661;28;20016;-73
2021/10/28 01:54:32;;;;;;;;;;;10.80;99.90;;;;;;8328718;28;19948;-73
2021/10/28 01:58:35;;;;;;;;;;;10.80;99.90;;;;;;8322642;28;19944;-73
2021/10/28 02:02:36;;;;;;;;;;;10.80;99.90;;;;;;8327785;28;19928;-73
2021/10/28 02:06:38;;;;;;;;;;;10.80;99.90;;;;;;8360997;28;20015;-73
2021/10/28 02:10:40;;;;;;;;;;;10.80;99.90;;;;;;8332151;28;19921;-73
2021/10/28 02:14:41;;;;;;;;;;;10.80;99.90;;;;;;8348403;28;19920;-73
2021/10/28 02:18:43;;;;;;;;;;;10.70;99.90;;;;;;8324202;28;20175;-73
2021/10/28 02:22:46;;;;;;;;;;;10.70;99.90;;;;;;8323697;28;19944;-73
2021/10/28 02:26:49;;;;;;;;;;;10.70;99.90;;;;;;8333954;28;19948;-73
2021/10/28 02:30:51;;;;;;;;;;;10.60;99.90;;;;;;8327234;28;19922;-73
2021/10/28 02:34:53;;;;;;;;;;;10.60;99.90;;;;;;8326478;28;19921;-73
2021/10/28 02:38:54;;;;;;;;;;;10.60;99.90;;;;;;8336721;28;19940;-73
2021/10/28 02:42:56;;;;;;;;;;;10.60;99.90;;;;;;8332963;28;19921;-73
2021/10/28 02:46:58;;;;;;;;;;;10.50;99.90;;;;;;8331401;28;19936;-73
2021/10/28 02:51:00;;;;;;;;;;;10.50;99.90;;;;;;8332103;28;20258;-73
2021/10/28 02:55:03;;;;;;;;;;;10.50;99.90;;;;;;8335226;28;20241;-73
2021/10/28 02:59:05;;;;;;;;;;;10.50;99.90;;;;;;8334353;28;20482;-73
2021/10/28 03:03:07;;;;;;;;;;;10.40;99.90;;;;;;8332536;28;19929;-73
2021/10/28 03:07:08;;;;;;;;;;;10.40;99.90;;;;;;8361509;28;19929;-73
2021/10/28 03:11:10;;;;;;;;;;;10.40;99.90;;;;;;8332276;28;19921;-73
2021/10/28 03:15:13;;;;;;;;;;;10.40;99.90;;;;;;8333338;28;19921;-73
2021/10/28 03:19:37;;;;;;;;;;;10.40;99.90;;;;;;8328421;28;19968;-73
2021/10/28 03:28:14;;;;;;;;;;;10.30;99.90;;;;;;8335162;28;20382;-72
2021/10/28 03:32:18;;;;;;;;;;;10.30;99.90;;;;;;8366658;28;20015;-73
2021/10/28 03:36:41;;;;;;;;;;;10.20;99.90;;;;;;8338635;28;19982;-73
2021/10/28 03:45:23;;;;;;;;;;;10.20;99.90;;;;;;8324381;28;20277;-73
2021/10/28 03:54:26;;;;;;;;;;;10.20;99.90;;;;;;8359851;28;19921;-72
2021/10/28 04:32:35;;;;;;;;;;;9.90;99.90;;;;;;8340079;28;19920;-73
2021/10/28 04:36:38;;;;;;;;;;;9.80;99.90;;;;;;8343817;28;19924;-73
2021/10/28 04:40:40;;;;;;;;;;;9.80;99.90;;;;;;8326718;28;20380;-73
2021/10/28 04:44:42;;;;;;;;;;;9.70;99.90;;;;;;8322908;28;19921;-73
2021/10/28 04:48:43;;;;;;;;;;;9.70;99.90;;;;;;8333139;28;20351;-73
2021/10/28 04:52:45;;;;;;;;;;;9.60;99.90;;;;;;8324270;28;19928;-73
2021/10/28 04:56:47;;;;;;;;;;;9.60;99.90;;;;;;8313988;28;19929;-73
2021/10/28 05:00:49;;;;;;;;;;;9.60;99.90;;;;;;8327440;28;20007;-72
2021/10/28 05:04:51;;;;;;;;;;;9.60;99.90;;;;;;8322550;28;19928;-72
2021/10/28 05:08:52;;;;;;;;;;;9.50;99.90;;;;;;8331199;28;19921;-73
2021/10/28 05:12:54;;;;;;;;;;;9.50;99.90;;;;;;8349283;28;19943;-73
2021/10/28 05:16:57;;;;;;;;;;;9.50;99.90;;;;;;8341187;28;20301;-73
2021/10/28 05:20:59;;;;;;;;;;;9.50;99.90;;;;;;8329997;28;19926;-73
2021/10/28 05:25:00;;;;;;;;;;;9.40;99.90;;;;;;8333806;28;19975;-72
2021/10/28 05:29:02;;;;;;;;;;;9.40;99.90;;;;;;8336558;28;19929;-72
2021/10/28 05:33:04;;;;;;;;;;;9.40;99.90;;;;;;8324492;28;20025;-72
2021/10/28 05:37:07;;;;;;;;;;;9.40;99.90;;;;;;8320715;28;21291;-73
2021/10/28 05:41:09;;;;;;;;;;;9.30;99.90;;;;;;8326461;28;19932;-73
2021/10/28 05:45:11;;;;;;;;;;;9.30;99.90;;;;;;8362884;28;19929;-73
2021/10/28 05:49:13;;;;;;;;;;;9.30;99.90;;;;;;8340037;28;19925;-73
2021/10/28 05:53:16;;;;;;;;;;;9.30;99.90;;;;;;8369488;28;19948;-72
2021/10/28 05:57:18;;;;;;;;;;;9.30;99.90;;;;;;8330672;28;20385;-73
2021/10/28 06:01:20;;;;;;;;;;;9.30;99.90;;;;;;8358991;28;19928;-73
2021/10/28 06:05:37;;;;;;;;;;;9.30;99.90;;;;;;8366602;28;19936;-73
2021/10/28 06:09:39;;;;;;;;;;;9.30;99.90;;;;;;8324431;28;19940;-73
2021/10/28 06:13:46;;;;;;;;;;;9.30;99.90;;;;;;8316508;28;19933;-73
2021/10/28 06:21:49;;;;;;;;;;;9.30;99.90;;;;;;8313679;28;19925;-72
2021/10/28 06:25:51;;;;;;;;;;;9.40;99.90;;;;;;8309616;28;19932;-73
2021/10/28 06:29:52;;;;;;;;;;;9.30;99.90;;;;;;8317341;28;19925;-73
2021/10/28 06:34:21;;;;;;;;;;;9.30;99.90;;;;;;8335699;28;19929;-73
2021/10/28 06:38:23;;;;;;;;;;;9.30;99.90;;;;;;8350768;28;20402;-73
2021/10/28 06:42:25;;;;;;;;;;;9.30;99.90;;;;;;8329228;28;19931;-73
2021/10/28 06:46:27;;;;;;;;;;;9.30;99.90;;;;;;8342308;28;19932;-73
2021/10/28 06:50:34;;;;;;;;;;;9.30;99.90;;;;;;8341474;28;19991;-73
2021/10/28 06:54:37;;;;;;;;;;;9.30;99.90;;;;;;8338744;28;19933;-73
2021/10/28 07:02:59;;;;;;;;;;;9.40;99.90;;;;;;8328926;28;19929;-73
2021/10/28 07:07:01;;;;;;;;;;;9.40;99.90;;;;;;8328580;28;19929;-72
2021/10/28 07:11:07;;;;;;;;;;;9.50;99.90;;;;;;8347405;28;19932;-73
2021/10/28 07:15:18;;;;;;;;;;;9.50;99.90;;;;;;8336246;28;19929;-73
2021/10/28 07:23:47;;;;;;;;;;;9.60;99.90;;;;;;8322741;28;19925;-73
2021/10/28 08:18:56;;;;;;;;;;;11.00;99.90;;;;;;8336589;28;19925;-74
2021/10/28 08:23:07;;;;;;;;;;;11.10;99.90;;;;;;8334888;28;20345;-74
2021/10/28 08:31:40;;;;;;;;;;;11.30;99.90;;;;;;8360758;28;19921;-74
2021/10/28 08:35:52;;;;;;;;;;;11.40;99.90;;;;;;8357033;28;19975;-73
2021/10/28 08:39:54;;;;;;;;;;;11.50;99.90;;;;;;8346652;28;20415;-73
2021/10/28 08:43:56;;;;;;;;;;;11.60;99.90;;;;;;8334944;28;19921;-74
2021/10/28 08:48:00;;;;;;;;;;;11.70;99.90;;;;;;8359131;28;19921;-74
2021/10/28 08:56:27;;;;;;;;;;;11.90;99.90;;;;;;8340269;28;20353;-73
2021/10/28 09:27:03;;;;;;;;;;;13.40;99.90;;;;;;8331427;28;19928;-73
2021/10/28 09:31:11;;;;;;;;;;;13.70;99.90;;;;;;8327240;28;19925;-73
2021/10/28 09:52:54;;;;;;;;;;;13.80;99.90;;;;;;8338943;28;19921;-74
2021/10/28 10:01:33;;;;;;;;;;;14.10;99.90;;;;;;8336390;28;19921;-74
2021/10/28 10:05:35;;;;;;;;;;;14.40;99.90;;;;;;8340428;28;20035;-74
2021/10/28 10:09:40;;;;;;;;;;;14.90;99.90;;;;;;8343631;28;19968;-73
2021/10/28 10:13:42;;;;;;;;;;;15.30;99.90;;;;;;8352901;28;19928;-74
2021/10/28 10:17:54;;;;;;;;;;;15.70;99.90;;;;;;8358119;28;19921;-73
2021/10/28 10:21:56;;;;;;;;;;;15.80;99.90;;;;;;8330596;28;20536;-74
2021/10/28 11:27:30;;;;;;;;;;;17.80;99.90;;;;;;8346552;28;19948;-74
2021/10/28 12:45:57;;;;;;;;;;;18.10;99.90;;;;;;8333471;28;19920;-74
2021/10/28 12:50:42;;;;;;;;;;;18.10;99.90;;;;;;8328628;28;24071;-74
2021/10/28 13:38:25;;;;;;;;;;;18.20;99.90;;;;;;8320715;28;19929;-74
2021/10/28 13:55:34;;;;;;;;;;;18.30;99.90;;;;;;8344262;28;19976;-73
2021/10/28 14:00:04;;;;;;;;;;;18.30;99.90;;;;;;8337324;28;20404;-74
2021/10/28 14:18:11;;;;;;;;;;;18.40;99.90;;;;;;8329855;28;19920;-74
2021/10/28 14:22:14;;;;;;;;;;;18.90;99.90;;;;;;8326689;28;20043;-74
2021/10/28 14:39:18;;;;;;;;;;;21.30;99.90;;;;;;8325002;28;19925;-74
2021/10/28 16:25:48;;;;;;;;;;;16.80;99.90;;;;;;8300382;28;20288;-74
2021/10/28 16:29:49;;;;;;;7.43;3.00;;;16.70;99.90;;;;;;8297530;28;19928;-74
2021/10/28 16:33:52;;;;;;;;;;;16.50;99.90;;;;;;8308190;28;20379;-73
2021/10/28 16:37:54;;;;;;;;;;;16.50;99.90;;;;;;8315992;28;19975;-74
2021/10/28 16:41:57;;;;;;;;;;;16.30;99.90;;;;;;8302953;28;20395;-73
2021/10/28 16:45:58;;;;;;;;;;;16.20;99.90;;;;;;8299097;28;19925;-73
2021/10/28 16:50:00;;;;;;;;;;;16.10;99.90;;;;;;8297272;28;19925;-74
2021/10/28 16:54:02;;;;;;;;;;;16.00;99.90;;;;;;8299422;28;19983;-73
2021/10/28 16:58:04;;;;;;;;;;;15.90;99.90;;;;;;8295622;28;19926;-73
2021/10/28 17:02:05;;;;;;;;;;;15.80;99.90;;;;;;8294249;28;20380;-73
2021/10/28 17:06:10;;;;;;;;;;;15.70;99.90;;;;;;8296722;28;19936;-74
2021/10/28 17:10:11;;;;;;;;;;;15.60;99.90;;;;;;8320188;28;19925;-73
2021/10/28 17:14:13;;;;;;;;;;;15.50;99.90;;;;;;8330643;28;20297;-73
2021/10/28 17:18:15;;;;;;;;;;;15.40;99.90;;;;;;8302368;28;19928;-73
2021/10/28 17:22:18;;;;;;;;;;;15.40;99.90;;;;;;8295803;28;19925;-73
2021/10/28 17:26:20;;;;;;;;;;;15.30;99.90;;;;;;8294576;28;19991;-73
2021/10/28 17:30:22;;;;;;;;;;;15.30;99.90;;;;;;8293766;28;19926;-73
2021/10/28 17:34:27;;;;;;;;;;;15.20;99.90;;;;;;8311924;28;20388;-73
2021/10/28 17:38:29;;;;;;;;;;;15.20;99.90;;;;;;8302181;28;19928;-73
2021/10/28 17:42:31;;;;;;;;;;;15.10;99.90;;;;;;8295452;28;19921;-73
2021/10/28 17:46:32;;;;;;;;;;;15.10;99.90;;;;;;8292406;28;19962;-73
2021/10/28 17:50:35;;;;;;;;;;;15.10;99.90;;;;;;8291815;28;19966;-74
2021/10/28 17:54:36;;;;;;;;;;;15.00;99.90;;;;;;8295268;28;19929;-74
2021/10/28 17:58:38;;;;;;;;;;;15.00;99.90;;;;;;8297391;28;19920;-73
2021/10/28 18:02:40;;;;;;;;;;;15.00;99.90;;;;;;8292483;28;20395;-73
2021/10/28 18:06:42;;;;;;;;;;;14.90;99.90;;;;;;8294435;28;19929;-73
2021/10/28 18:10:44;;;;;;;;;;;14.90;99.90;;;;;;8296317;28;19922;-74
2021/10/28 18:14:46;;;;;;;;;;;14.90;99.90;;;;;;8297902;28;20004;-74
2021/10/28 18:18:49;;;;;;;;;;;14.90;99.90;;;;;;8290485;28;19956;-73
2021/10/28 18:22:50;;;;;;;;;;;14.90;99.90;;;;;;8290968;28;20048;-73
2021/10/28 18:26:53;;;;;;;;;;;14.80;99.90;;;;;;8297127;28;19929;-73
2021/10/28 18:30:55;;;;;;;;;;;14.70;99.90;;;;;;8310159;28;20120;-73
2021/10/28 18:34:56;;;;;;;;;;;14.70;99.90;;;;;;8296347;28;19987;-74
2021/10/28 18:38:58;;;;;;;;;;;14.60;99.90;;;;;;8293645;28;20352;-73
2021/10/28 18:43:00;;;;;;;;;;;14.60;99.90;;;;;;8314574;28;19929;-73
2021/10/28 18:47:02;;;;;;;;;;;14.60;99.90;;;;;;8294682;28;20337;-73
2021/10/28 18:51:05;;;;;;;;;;;14.50;99.90;;;;;;8296757;28;19921;-73
2021/10/28 18:55:06;;;;;;;;;;;14.50;99.90;;;;;;8312566;28;19921;-73
2021/10/28 18:59:08;;;;;;;;;;;14.40;99.90;;;;;;8308869;28;20288;-73
2021/10/28 19:03:10;;;;;;;;;;;14.30;99.90;;;;;;8292077;28;20149;-73
2021/10/28 19:07:12;;;;;;;;;;;14.30;99.90;;;;;;8311263;28;19928;-73
2021/10/28 19:11:15;;;;;;;;;;;14.30;99.90;;;;;;8294295;28;19925;-73
2021/10/28 19:15:18;;;;;;;;;;;14.20;99.90;;;;;;8299341;28;20583;-73
2021/10/28 19:19:19;;;;;;;;;;;14.20;99.90;;;;;;8322399;28;19925;-73
2021/10/28 19:23:21;;;;;;;;;;;14.20;99.90;;;;;;8292624;28;20365;-73
2021/10/28 19:27:23;;;;;;;;;;;14.10;99.90;;;;;;8295299;28;19926;-73
2021/10/28 19:31:28;;;;;;;;;;;14.10;99.90;;;;;;8320693;28;19921;-73
2021/10/28 19:35:32;;;;;;;;;;;14.10;99.90;;;;;;8294770;28;19967;-73
2021/10/28 19:40:07;;;;;;;;;;;14.10;99.90;;;;;;8291579;28;20369;-73
2021/10/28 19:48:30;;;;;;;;;;;14.00;99.90;;;;;;8292251;28;20391;-73
2021/10/28 19:52:32;;;;;;;;;;;14.00;99.90;;;;;;8293577;28;19920;-73
2021/10/28 19:56:33;;;;;;;;;;;13.90;99.90;;;;;;8312472;28;19925;-73
2021/10/28 20:05:04;;;;;;;;;;;13.90;99.90;;;;;;8301996;28;19936;-73
2021/10/28 20:21:52;;;;;;;;;;;13.80;99.90;;;;;;8302390;28;19980;-74
2021/10/28 20:25:55;;;;;;;;;;;13.80;99.90;;;;;;8319583;28;19931;-73
2021/10/28 20:29:56;;;;;;;;;;;13.80;99.90;;;;;;8299544;28;19928;-73
2021/10/28 20:38:06;;;;;;;;;;;13.70;99.90;;;;;;8299362;28;20274;-73
2021/10/28 20:42:08;;;;;;;;;;;13.60;99.90;;;;;;8299383;28;19921;-73
2021/10/28 20:46:15;;;;;;;;;;;13.60;99.90;;;;;;8311772;28;19933;-73
2021/10/28 20:50:17;;;;;;;;;;;13.60;99.90;;;;;;8310941;28;19925;-73
2021/10/28 20:54:21;;;;;;;;;;;13.50;99.90;;;;;;8299529;28;20245;-73
2021/10/28 20:58:22;;;;;;;;;;;13.50;99.90;;;;;;8314603;28;19921;-73
2021/10/28 21:02:24;;;;;;;;;;;13.40;99.90;;;;;;8308368;28;20203;-73
2021/10/28 21:06:26;;;;;;;;;;;13.40;99.90;;;;;;8350341;28;19928;-73
2021/10/28 21:10:28;;;;;;;;;;;13.40;99.90;;;;;;8344077;28;20253;-73
2021/10/28 21:14:29;;;;;;;;;;;13.30;99.90;;;;;;8331828;28;19936;-73
2021/10/28 21:18:31;;;;;;;;;;;13.30;99.90;;;;;;8336257;28;19928;-73
2021/10/28 21:22:34;;;;;;;;;;;13.20;99.90;;;;;;8315911;28;19924;-73
2021/10/28 21:26:36;;;;;;;;;;;13.20;99.90;;;;;;8328560;28;19929;-73
2021/10/28 21:30:38;;;;;;;;;;;13.20;99.90;;;;;;8330518;28;19932;-73
2021/10/28 21:34:41;;;;;;;;;;;13.20;99.90;;;;;;8333068;28;19921;-73
2021/10/28 21:38:42;;;;;;;;;;;13.10;99.90;;;;;;8348073;28;19936;-73
2021/10/28 21:42:45;;;;;;;;;;;13.10;99.90;;;;;;8359332;28;20430;-73
2021/10/28 21:46:48;;;;;;;;;;;13.10;99.90;;;;;;8329992;28;20281;-73
2021/10/28 21:50:56;;;;;;;;;;;13.00;99.90;;;;;;8332821;28;20376;-73
2021/10/28 22:25:18;;;;;;;;;;;12.70;99.90;;;;;;8332761;28;20252;-73
2021/10/28 22:29:19;;;;;;;;;;;12.70;99.90;;;;;;8330557;28;19932;-73
2021/10/28 22:33:21;;;;;;;;;;;12.70;99.90;;;;;;8339775;28;19928;-73
2021/10/28 22:37:47;;;;;;;;;;;12.60;99.90;;;;;;8335786;28;19943;-73
2021/10/28 22:41:47;;;;;;;;;;;12.60;99.90;;;;;;8346902;28;20024;-73
2021/10/28 22:45:49;;;;;;;;;;;12.60;99.90;;;;;;8337314;28;20284;-73
2021/10/28 22:49:52;;;;;;;;;;;12.50;99.90;;;;;;8337721;28;19929;-73
2021/10/28 22:53:54;;;;;;;;;;;12.50;99.90;;;;;;8334982;28;20384;-73
2021/10/28 22:58:11;;;;;;;;;;;12.40;99.90;;;;;;8336460;28;20291;-73
2021/10/28 23:14:39;;;;;;;;;;;12.30;99.90;;;;;;8329317;28;20039;-73
2021/10/28 23:23:01;;;;;;;;;;;12.20;99.90;;;;;;8326757;28;19921;-73
2021/10/28 23:27:03;;;;;;;;;;;12.20;99.90;;;;;;8358174;28;20269;-73
2021/10/28 23:31:04;;;;;;;;;;;12.10;99.90;;;;;;8346905;28;19932;-73
2021/10/28 23:35:06;;;;;;;;;;;12.10;99.90;;;;;;8336775;28;19933;-73
2021/10/28 23:39:09;;;;;;;;;;;12.00;99.90;;;;;;8333206;28;20312;-74
2021/10/28 23:43:11;;;;;;;;;;;12.00;99.90;;;;;;8325963;28;19921;-73
2021/10/28 23:47:12;;;;;;;;;;;12.00;99.90;;;;;;8344491;28;20295;-73
2021/10/28 23:51:14;;;;;;;;;;;11.90;99.90;;;;;;8331207;28;19925;-73
2021/10/28 23:55:16;;;;;;;;;;;11.90;99.90;;;;;;8335948;28;20365;-73
2021/10/28 23:59:18;;;;;;;;;;;11.90;99.90;;;;;;8332069;28;19987;-73
